Time;durP1;ratioP1;P1;durP2;ratioP2;P2;SDS_P1;SDS_P2;PMS_P1;PMS_P2;Temp;Humidity;BMP_temperature;BMP_pressure;BME280_temperature;BME280_humidity;BME280_pressure;Samples;Min_cycle;Max_cycle;Signal;HPM_P1;HPM_P2
2023/03/17 00:01:05;;;;;;;4.35;1.90;;;;;;;;;;5019922;28;21045;-65
2023/03/17 00:03:36;;;;;;;3.45;1.95;;;;;;;;;;5020859;28;20187;-65
2023/03/17 00:06:03;;;;;;;3.78;2.15;;;;;;;;;;5025525;28;20186;-65
2023/03/17 00:08:32;;;;;;;7.00;2.00;;;;;;;;;;5025165;28;20293;-65
2023/03/17 00:10:58;;;;;;;3.67;2.00;;;;;;;;;;5014325;28;20193;-65
2023/03/17 00:13:24;;;;;;;6.45;2.40;;;;;;;;;;5028658;28;20216;-65
2023/03/17 00:15:54;;;;;;;5.25;2.03;;;;;;;;;;5012260;28;20190;-65
2023/03/17 00:18:21;;;;;;;3.15;1.67;;;;;;;;;;5028238;28;20219;-65
2023/03/17 00:20:47;;;;;;;3.30;2.25;;;;;;;;;;5018736;28;20205;-65
2023/03/17 00:23:23;;;;;;;2.13;1.80;;;;;;;;;;5024510;28;20186;-65
2023/03/17 00:25:50;;;;;;;4.75;2.17;;;;;;;;;;5023314;28;20197;-66
2023/03/17 00:28:19;;;;;;;4.20;2.10;;;;;;;;;;5027308;28;20225;-65
2023/03/17 00:30:46;;;;;;;4.03;2.53;;;;;;;;;;5027236;28;20244;-65
2023/03/17 00:33:14;;;;;;;3.45;2.00;;;;;;;;;;5019693;28;20199;-65
2023/03/17 00:35:41;;;;;;;4.20;1.90;;;;;;;;;;5010595;28;20190;-65
2023/03/17 00:38:13;;;;;;;7.57;2.30;;;;;;;;;;5018011;28;20268;-65
2023/03/17 00:40:38;;;;;;;3.28;2.05;;;;;;;;;;5009071;28;20210;-65
2023/03/17 00:43:04;;;;;;;4.82;2.30;;;;;;;;;;5019737;28;20244;-65
2023/03/17 00:45:29;;;;;;;4.22;2.10;;;;;;;;;;5021499;28;20194;-65
2023/03/17 00:47:55;;;;;;;4.38;2.17;;;;;;;;;;5017008;28;20345;-65
2023/03/17 00:50:23;;;;;;;3.58;2.17;;;;;;;;;;5027547;28;20178;-65
2023/03/17 00:52:50;;;;;;;5.15;2.13;;;;;;;;;;5027692;28;20224;-65
2023/03/17 00:55:18;;;;;;;4.35;2.40;;;;;;;;;;5017467;28;20605;-66
2023/03/17 00:57:45;;;;;;;3.58;2.20;;;;;;;;;;5017719;28;20203;-65
2023/03/17 01:00:27;;;;;;;2.70;2.10;;;;;;;;;;5026805;28;20221;-65
2023/03/17 01:02:54;;;;;;;2.17;1.80;;;;;;;;;;5026961;28;20194;-65
2023/03/17 01:05:22;;;;;;;4.40;2.00;;;;;;;;;;5007680;28;20350;-65
2023/03/17 01:07:51;;;;;;;2.77;2.10;;;;;;;;;;5017060;28;20210;-65
2023/03/17 01:10:27;;;;;;;4.33;2.43;;;;;;;;;;5013088;28;20247;-65
2023/03/17 01:12:54;;;;;;;5.10;2.07;;;;;;;;;;5017690;28;20196;-65
2023/03/17 01:15:21;;;;;;;3.63;2.15;;;;;;;;;;5009564;28;20190;-65
2023/03/17 01:17:49;;;;;;;5.03;1.90;;;;;;;;;;5018031;28;20218;-65
2023/03/17 01:20:20;;;;;;;3.42;1.95;;;;;;;;;;5040031;28;20210;-65
2023/03/17 01:22:46;;;;;;;5.93;2.13;;;;;;;;;;5024410;28;20664;-65
2023/03/17 01:25:11;;;;;;;7.15;2.55;;;;;;;;;;5014715;28;20302;-65
2023/03/17 01:27:38;;;;;;;3.95;1.95;;;;;;;;;;5022325;28;20245;-65
2023/03/17 01:30:05;;;;;;;4.47;2.03;;;;;;;;;;5025941;28;20261;-65
2023/03/17 01:32:31;;;;;;;3.40;2.20;;;;;;;;;;5020426;28;20217;-65
2023/03/17 01:34:57;;;;;;;2.67;1.88;;;;;;;;;;5018100;28;20237;-66
2023/03/17 01:37:23;;;;;;;6.28;2.47;;;;;;;;;;5015357;28;20224;-65
2023/03/17 01:39:48;;;;;;;5.68;1.98;;;;;;;;;;5014845;28;20211;-65
2023/03/17 01:42:14;;;;;;;4.13;2.15;;;;;;;;;;5016783;28;20704;-66
2023/03/17 01:44:59;;;;;;;3.65;2.20;;;;;;;;;;5022487;28;20190;-65
2023/03/17 01:47:27;;;;;;;4.20;2.25;;;;;;;;;;5024569;28;20273;-65
2023/03/17 01:49:53;;;;;;;3.70;2.00;;;;;;;;;;5024286;28;20228;-65
2023/03/17 01:52:21;;;;;;;3.90;2.45;;;;;;;;;;5017515;28;20195;-65
2023/03/17 01:54:55;;;;;;;2.30;1.97;;;;;;;;;;5024777;28;20270;-65
2023/03/17 01:57:32;;;;;;;3.87;2.10;;;;;;;;;;5019829;28;20186;-65
2023/03/17 02:00:04;;;;;;;5.45;2.28;;;;;;;;;;5026450;28;20222;-65
2023/03/17 02:02:33;;;;;;;3.80;2.10;;;;;;;;;;5025884;28;20780;-65
2023/03/17 02:05:00;;;;;;;3.23;2.20;;;;;;;;;;5028044;28;20293;-65
2023/03/17 02:07:26;;;;;;;4.80;2.13;;;;;;;;;;5028362;28;20247;-65
2023/03/17 02:09:54;;;;;;;4.95;2.40;;;;;;;;;;5030542;28;20178;-65
2023/03/17 02:12:21;;;;;;;3.60;2.10;;;;;;;;;;5028252;28;20190;-65
2023/03/17 02:14:46;;;;;;;2.73;2.10;;;;;;;;;;5030558;28;20277;-65
2023/03/17 02:17:12;;;;;;;3.73;2.00;;;;;;;;;;5024873;28;20286;-65
2023/03/17 02:19:38;;;;;;;3.40;2.10;;;;;;;;;;5023725;28;20193;-65
2023/03/17 02:22:03;;;;;;;5.57;2.40;;;;;;;;;;5023496;28;20197;-65
2023/03/17 02:24:36;;;;;;;3.00;2.03;;;;;;;;;;5028104;28;20209;-65
2023/03/17 02:27:14;;;;;;;3.00;2.00;;;;;;;;;;5018900;28;20244;-65
2023/03/17 02:29:40;;;;;;;5.63;2.27;;;;;;;;;;5019760;28;20195;-65
2023/03/17 02:32:06;;;;;;;5.40;1.93;;;;;;;;;;5025268;28;20538;-65
2023/03/17 02:34:33;;;;;;;4.13;2.10;;;;;;;;;;5019215;28;20192;-65
2023/03/17 02:36:59;;;;;;;4.70;2.00;;;;;;;;;;5018777;28;20193;-65
2023/03/17 02:39:24;;;;;;;3.20;2.03;;;;;;;;;;5030227;28;20532;-65
2023/03/17 02:41:50;;;;;;;3.87;2.17;;;;;;;;;;5021395;28;20220;-65
2023/03/17 02:44:16;;;;;;;4.37;2.03;;;;;;;;;;5027458;28;20190;-65
2023/03/17 02:46:42;;;;;;;4.67;2.10;;;;;;;;;;5023140;28;20198;-65
2023/03/17 02:49:08;;;;;;;7.07;2.23;;;;;;;;;;5021551;28;20182;-65
2023/03/17 02:51:33;;;;;;;3.63;1.97;;;;;;;;;;5023805;28;20244;-65
2023/03/17 02:53:58;;;;;;;3.60;1.93;;;;;;;;;;5026603;28;20535;-65
2023/03/17 02:56:24;;;;;;;3.93;1.60;;;;;;;;;;5027060;28;20266;-65
2023/03/17 02:58:50;;;;;;;5.50;1.97;;;;;;;;;;5021587;28;20190;-65
2023/03/17 03:01:15;;;;;;;3.97;2.00;;;;;;;;;;5017305;28;20230;-65
2023/03/17 03:03:40;;;;;;;3.37;2.07;;;;;;;;;;5026917;28;20390;-65
2023/03/17 03:06:06;;;;;;;3.67;2.17;;;;;;;;;;5027702;28;20273;-65
2023/03/17 03:08:32;;;;;;;6.70;2.20;;;;;;;;;;5028041;28;20234;-65
2023/03/17 03:10:59;;;;;;;3.43;2.40;;;;;;;;;;5023385;28;20199;-66
2023/03/17 03:13:25;;;;;;;3.37;2.30;;;;;;;;;;5024217;28;20523;-65
2023/03/17 03:15:50;;;;;;;2.83;1.70;;;;;;;;;;5017092;28;20342;-65
2023/03/17 03:18:16;;;;;;;3.30;2.00;;;;;;;;;;5018579;28;20190;-65
2023/03/17 03:20:45;;;;;;;3.43;1.80;;;;;;;;;;5014803;28;20298;-65
2023/03/17 03:23:11;;;;;;;3.33;1.87;;;;;;;;;;5010804;28;20659;-65
2023/03/17 03:25:37;;;;;;;4.90;2.07;;;;;;;;;;5016387;28;20194;-65
2023/03/17 03:28:05;;;;;;;2.87;1.87;;;;;;;;;;5018980;28;20731;-65
2023/03/17 03:30:32;;;;;;;3.57;1.80;;;;;;;;;;5024425;28;20201;-65
2023/03/17 03:32:57;;;;;;;6.97;2.10;;;;;;;;;;5018730;28;20221;-65
2023/03/17 03:35:23;;;;;;;3.30;1.80;;;;;;;;;;5026238;28;20452;-65
2023/03/17 03:37:48;;;;;;;5.22;1.45;;;;;;;;;;5020525;28;20185;-65
2023/03/17 03:40:14;;;;;;;4.03;1.90;;;;;;;;;;5019352;28;21091;-65
2023/03/17 03:42:39;;;;;;;2.90;1.80;;;;;;;;;;5016182;28;20346;-65
2023/03/17 03:45:05;;;;;;;4.20;1.90;;;;;;;;;;5019858;28;20608;-65
2023/03/17 03:47:31;;;;;;;3.87;2.03;;;;;;;;;;5028087;28;20220;-65
2023/03/17 03:49:56;;;;;;;3.77;2.00;;;;;;;;;;5018655;28;20650;-65
2023/03/17 03:52:22;;;;;;;4.07;2.23;;;;;;;;;;5026513;28;20202;-65
2023/03/17 03:54:47;;;;;;;6.40;1.70;;;;;;;;;;5027502;28;20190;-65
2023/03/17 03:57:13;;;;;;;4.37;1.73;;;;;;;;;;5021608;28;20186;-65
2023/03/17 03:59:38;;;;;;;3.00;1.77;;;;;;;;;;5021607;28;20197;-65
2023/03/17 04:02:03;;;;;;;3.93;1.73;;;;;;;;;;5013159;28;20248;-65
2023/03/17 04:04:29;;;;;;;5.13;2.03;;;;;;;;;;5028339;28;20186;-65
2023/03/17 04:06:55;;;;;;;3.10;1.87;;;;;;;;;;5025674;28;20213;-65
2023/03/17 04:09:20;;;;;;;3.23;1.80;;;;;;;;;;5028065;28;20198;-65
2023/03/17 04:11:45;;;;;;;3.73;2.00;;;;;;;;;;5027024;28;20506;-65
2023/03/17 04:14:11;;;;;;;5.00;1.87;;;;;;;;;;5023670;28;20226;-65
2023/03/17 04:16:36;;;;;;;3.73;1.73;;;;;;;;;;5026426;28;20186;-65
2023/03/17 04:19:02;;;;;;;3.37;1.70;;;;;;;;;;5030000;28;20233;-65
2023/03/17 04:21:27;;;;;;;3.87;1.67;;;;;;;;;;5020981;28;20518;-66
2023/03/17 04:23:53;;;;;;;3.87;1.83;;;;;;;;;;5021679;28;20620;-66
2023/03/17 04:26:18;;;;;;;3.92;2.10;;;;;;;;;;5024737;28;20244;-65
2023/03/17 04:28:44;;;;;;;3.50;1.58;;;;;;;;;;5012415;28;20253;-65
2023/03/17 04:31:11;;;;;;;5.32;1.80;;;;;;;;;;5022786;28;20587;-65
2023/03/17 04:33:37;;;;;;;4.40;1.55;;;;;;;;;;5022773;28;20194;-65
2023/03/17 04:36:03;;;;;;;4.00;1.60;;;;;;;;;;5020159;28;20561;-65
2023/03/17 04:38:28;;;;;;;2.17;1.63;;;;;;;;;;5019436;28;20549;-65
2023/03/17 04:40:54;;;;;;;3.80;1.63;;;;;;;;;;5019000;28;20218;-65
2023/03/17 04:43:19;;;;;;;5.22;2.05;;;;;;;;;;5021154;28;20194;-65
2023/03/17 04:45:45;;;;;;;2.67;1.60;;;;;;;;;;5024036;28;20193;-65
2023/03/17 04:48:10;;;;;;;3.00;1.80;;;;;;;;;;5012857;28;20317;-65
2023/03/17 04:50:36;;;;;;;5.43;1.50;;;;;;;;;;5022311;28;20447;-65
2023/03/17 04:53:01;;;;;;;3.03;1.63;;;;;;;;;;5019236;28;20190;-65
2023/03/17 04:55:26;;;;;;;6.55;2.00;;;;;;;;;;5009545;28;20201;-65
2023/03/17 04:57:52;;;;;;;4.07;1.60;;;;;;;;;;5010669;28;20729;-65
2023/03/17 05:00:18;;;;;;;4.77;1.70;;;;;;;;;;5023459;28;20237;-65
2023/03/17 05:02:43;;;;;;;3.00;1.88;;;;;;;;;;5014627;28;20348;-65
2023/03/17 05:05:09;;;;;;;3.17;1.90;;;;;;;;;;5024166;28;20269;-65
2023/03/17 05:07:34;;;;;;;4.40;2.00;;;;;;;;;;5008370;28;20536;-65
2023/03/17 05:10:00;;;;;;;3.58;1.77;;;;;;;;;;5013299;28;20285;-64
2023/03/17 05:12:26;;;;;;;4.25;1.95;;;;;;;;;;5016803;28;20192;-63
2023/03/17 05:14:51;;;;;;;2.83;1.70;;;;;;;;;;5024666;28;20198;-65
2023/03/17 05:17:17;;;;;;;3.05;2.03;;;;;;;;;;5027943;28;20204;-65
2023/03/17 05:19:42;;;;;;;3.73;2.33;;;;;;;;;;5018397;28;20293;-65
2023/03/17 05:22:08;;;;;;;5.03;2.00;;;;;;;;;;5011535;28;20492;-64
2023/03/17 05:24:33;;;;;;;2.77;1.90;;;;;;;;;;5013770;28;20297;-64
2023/03/17 05:26:58;;;;;;;3.40;1.97;;;;;;;;;;5026304;28;20233;-64
2023/03/17 05:29:24;;;;;;;3.67;1.87;;;;;;;;;;5024178;28;20287;-64
2023/03/17 05:31:49;;;;;;;5.47;1.83;;;;;;;;;;5013157;28;20245;-64
2023/03/17 05:34:15;;;;;;;3.80;1.90;;;;;;;;;;5021138;28;20194;-64
2023/03/17 05:36:40;;;;;;;3.40;1.90;;;;;;;;;;5022199;28;20279;-64
2023/03/17 05:39:06;;;;;;;4.10;2.10;;;;;;;;;;5018856;28;20309;-64
2023/03/17 05:41:32;;;;;;;4.77;2.03;;;;;;;;;;5028153;28;20206;-65
2023/03/17 05:43:58;;;;;;;5.83;2.20;;;;;;;;;;5015312;28;20193;-65
2023/03/17 05:46:23;;;;;;;5.87;2.63;;;;;;;;;;5021420;28;20337;-63
2023/03/17 05:48:48;;;;;;;3.78;2.00;;;;;;;;;;5020635;28;20190;-65
2023/03/17 05:51:14;;;;;;;4.03;2.37;;;;;;;;;;5027109;28;20182;-64
2023/03/17 05:53:40;;;;;;;3.67;2.20;;;;;;;;;;5020658;28;20194;-64
2023/03/17 05:56:06;;;;;;;4.30;2.10;;;;;;;;;;5022711;28;20191;-64
2023/03/17 05:58:31;;;;;;;2.73;1.73;;;;;;;;;;5013604;28;20195;-65
2023/03/17 06:00:57;;;;;;;3.55;2.08;;;;;;;;;;5015520;28;20210;-64
2023/03/17 06:03:22;;;;;;;6.00;2.33;;;;;;;;;;5021694;28;20198;-64
2023/03/17 06:05:47;;;;;;;4.40;1.80;;;;;;;;;;5011938;28;20187;-66
2023/03/17 06:08:13;;;;;;;3.67;2.30;;;;;;;;;;5021880;28;20289;-64
2023/03/17 06:10:40;;;;;;;5.97;2.07;;;;;;;;;;5030099;28;20225;-64
2023/03/17 06:13:05;;;;;;;9.27;2.42;;;;;;;;;;5020547;28;20564;-65
2023/03/17 06:15:32;;;;;;;4.33;1.90;;;;;;;;;;5011854;28;20207;-65
2023/03/17 06:17:58;;;;;;;5.20;2.20;;;;;;;;;;5017064;28;20561;-65
2023/03/17 06:20:24;;;;;;;3.40;2.30;;;;;;;;;;5013256;28;20210;-64
2023/03/17 06:22:49;;;;;;;5.57;2.03;;;;;;;;;;5022952;28;20194;-64
2023/03/17 06:25:15;;;;;;;7.13;1.87;;;;;;;;;;5023424;28;20206;-66
2023/03/17 06:27:41;;;;;;;3.67;2.00;;;;;;;;;;5015994;28;20642;-64
2023/03/17 06:30:08;;;;;;;4.82;2.30;;;;;;;;;;5021466;28;20716;-64
2023/03/17 06:32:34;;;;;;;7.60;2.58;;;;;;;;;;5024070;28;20585;-64
2023/03/17 06:35:00;;;;;;;2.70;1.90;;;;;;;;;;5026335;28;20244;-64
2023/03/17 06:37:26;;;;;;;5.15;2.10;;;;;;;;;;5028326;28;20273;-64
2023/03/17 06:39:52;;;;;;;4.43;2.33;;;;;;;;;;5013979;28;20320;-64
2023/03/17 06:42:18;;;;;;;4.32;2.10;;;;;;;;;;5021526;28;20195;-64
2023/03/17 06:44:44;;;;;;;4.03;1.85;;;;;;;;;;5023868;28;20597;-64
2023/03/17 06:47:09;;;;;;;3.28;1.85;;;;;;;;;;5021462;28;20204;-65
2023/03/17 06:49:35;;;;;;;5.68;2.00;;;;;;;;;;5017450;28;20604;-65
2023/03/17 06:52:00;;;;;;;4.97;2.10;;;;;;;;;;5024818;28;20280;-64
2023/03/17 06:54:26;;;;;;;4.25;2.10;;;;;;;;;;5018150;28;20256;-65
2023/03/17 06:56:52;;;;;;;3.13;2.20;;;;;;;;;;5026531;28;20216;-64
2023/03/17 06:59:19;;;;;;;3.22;1.70;;;;;;;;;;5025740;28;20221;-64
2023/03/17 07:01:45;;;;;;;2.88;2.10;;;;;;;;;;5026117;28;20280;-64
2023/03/17 07:04:11;;;;;;;3.83;2.25;;;;;;;;;;5017942;28;20206;-65
2023/03/17 07:06:36;;;;;;;4.30;2.45;;;;;;;;;;5026351;28;20244;-64
2023/03/17 07:09:02;;;;;;;6.07;1.80;;;;;;;;;;5026841;28;20676;-66
2023/03/17 07:11:29;;;;;;;4.55;2.40;;;;;;;;;;5023826;28;20240;-65
2023/03/17 07:13:55;;;;;;;3.53;2.20;;;;;;;;;;5022859;28;20193;-65
2023/03/17 07:16:21;;;;;;;4.00;2.05;;;;;;;;;;5024151;28;20198;-65
2023/03/17 07:18:46;;;;;;;6.95;2.15;;;;;;;;;;5024296;28;20194;-66
2023/03/17 07:21:12;;;;;;;6.22;2.20;;;;;;;;;;5021209;28;20561;-65
2023/03/17 07:23:37;;;;;;;3.67;1.95;;;;;;;;;;5027489;28;20178;-64
2023/03/17 07:26:03;;;;;;;5.20;2.35;;;;;;;;;;5025853;28;20238;-65
2023/03/17 07:28:29;;;;;;;3.85;2.10;;;;;;;;;;5021308;28;20222;-64
2023/03/17 07:30:56;;;;;;;5.35;2.30;;;;;;;;;;5018884;28;20194;-64
2023/03/17 07:33:23;;;;;;;7.93;2.30;;;;;;;;;;5024288;28;20221;-64
2023/03/17 07:35:49;;;;;;;6.22;2.42;;;;;;;;;;5019455;28;20760;-65
2023/03/17 07:38:17;;;;;;;4.25;2.15;;;;;;;;;;5014937;28;20570;-65
2023/03/17 07:40:45;;;;;;;4.28;2.35;;;;;;;;;;5025158;28;20206;-65
2023/03/17 07:43:11;;;;;;;3.78;2.17;;;;;;;;;;5020653;28;20682;-65
2023/03/17 07:45:36;;;;;;;7.45;2.22;;;;;;;;;;5022386;28;20293;-66
2023/03/17 07:48:03;;;;;;;6.30;2.47;;;;;;;;;;5019225;28;21099;-65
2023/03/17 07:50:30;;;;;;;4.53;2.25;;;;;;;;;;5021156;28;20565;-65
2023/03/17 07:52:55;;;;;;;5.18;2.38;;;;;;;;;;5019011;28;20198;-65
2023/03/17 07:55:21;;;;;;;5.72;2.80;;;;;;;;;;5018111;28;20285;-65
2023/03/17 07:57:46;;;;;;;6.30;2.58;;;;;;;;;;5015268;28;20430;-65
2023/03/17 08:00:12;;;;;;;5.68;2.25;;;;;;;;;;5014910;28;20609;-65
2023/03/17 08:02:38;;;;;;;9.23;2.92;;;;;;;;;;5018087;28;20342;-65
2023/03/17 08:05:06;;;;;;;5.60;2.28;;;;;;;;;;5008612;28;20635;-65
2023/03/17 08:07:32;;;;;;;5.70;2.63;;;;;;;;;;5017573;28;20741;-65
2023/03/17 08:09:57;;;;;;;3.67;2.40;;;;;;;;;;5012580;28;20256;-65
2023/03/17 08:12:23;;;;;;;6.55;2.50;;;;;;;;;;5021181;28;20189;-65
2023/03/17 08:14:49;;;;;;;7.18;2.75;;;;;;;;;;5019241;28;20194;-65
2023/03/17 08:17:14;;;;;;;4.80;2.20;;;;;;;;;;5023592;28;20221;-65
2023/03/17 08:19:40;;;;;;;5.93;2.35;;;;;;;;;;5025530;28;20190;-65
2023/03/17 08:22:05;;;;;;;5.45;2.80;;;;;;;;;;5026218;28;20723;-65
2023/03/17 08:24:31;;;;;;;8.43;2.75;;;;;;;;;;5033009;28;20273;-65
2023/03/17 08:26:57;;;;;;;3.85;2.45;;;;;;;;;;5025851;28;20613;-65
2023/03/17 08:29:22;;;;;;;5.60;2.80;;;;;;;;;;5030075;28;20218;-65
2023/03/17 08:31:47;;;;;;;6.18;2.38;;;;;;;;;;5025611;28;20189;-65
2023/03/17 08:34:15;;;;;;;5.70;2.83;;;;;;;;;;5012910;28;20209;-65
2023/03/17 08:36:41;;;;;;;6.10;2.60;;;;;;;;;;5028228;28;20276;-65
2023/03/17 08:39:06;;;;;;;5.10;2.60;;;;;;;;;;5016513;28;20186;-65
2023/03/17 08:41:33;;;;;;;5.97;2.55;;;;;;;;;;5016807;28;20309;-65
2023/03/17 08:43:59;;;;;;;7.00;2.88;;;;;;;;;;5019188;28;20190;-66
2023/03/17 08:46:29;;;;;;;4.55;2.55;;;;;;;;;;5007872;28;20684;-65
2023/03/17 08:48:56;;;;;;;4.50;2.97;;;;;;;;;;5007674;28;20191;-65
2023/03/17 08:51:24;;;;;;;4.60;2.72;;;;;;;;;;5009331;28;20211;-65
2023/03/17 08:53:50;;;;;;;5.88;2.78;;;;;;;;;;5006834;28;20211;-65
2023/03/17 08:56:16;;;;;;;8.63;2.92;;;;;;;;;;5014651;28;20197;-65
2023/03/17 08:58:42;;;;;;;6.18;2.97;;;;;;;;;;5019338;28;20647;-65
2023/03/17 09:01:09;;;;;;;6.05;2.50;;;;;;;;;;5016922;28;20236;-65
2023/03/17 09:03:35;;;;;;;6.45;2.60;;;;;;;;;;5013364;28;20269;-65
2023/03/17 09:06:04;;;;;;;6.40;2.55;;;;;;;;;;5027449;28;20255;-65
2023/03/17 09:08:30;;;;;;;9.95;2.97;;;;;;;;;;5023673;28;20190;-65
2023/03/17 09:10:55;;;;;;;5.68;2.50;;;;;;;;;;5020382;28;20183;-65
2023/03/17 09:13:21;;;;;;;6.65;2.60;;;;;;;;;;5014844;28;20594;-65
2023/03/17 09:15:47;;;;;;;5.55;2.55;;;;;;;;;;5019379;28;20270;-65
2023/03/17 09:18:13;;;;;;;6.85;2.70;;;;;;;;;;5019731;28;20219;-64
2023/03/17 09:20:39;;;;;;;11.40;2.97;;;;;;;;;;5019853;28;20611;-65
2023/03/17 09:23:06;;;;;;;5.88;2.85;;;;;;;;;;5021821;28;20197;-64
2023/03/17 09:25:34;;;;;;;6.85;2.70;;;;;;;;;;5012763;28;20270;-64
2023/03/17 09:28:00;;;;;;;6.80;3.00;;;;;;;;;;5014413;28;20230;-66
2023/03/17 09:30:26;;;;;;;7.72;3.60;;;;;;;;;;5019144;28;20182;-65
2023/03/17 09:32:51;;;;;;;8.02;2.95;;;;;;;;;;5014447;28;20194;-65
2023/03/17 09:35:17;;;;;;;7.30;3.10;;;;;;;;;;5020794;28;20282;-65
2023/03/17 09:37:42;;;;;;;9.90;3.30;;;;;;;;;;5021697;28;20255;-65
2023/03/17 09:40:15;;;;;;;6.43;3.05;;;;;;;;;;5012582;28;20507;-65
2023/03/17 09:43:12;;;;;;;4.68;2.80;;;;;;;;;;5025592;28;20214;-65
2023/03/17 09:45:39;;;;;;;4.85;3.20;;;;;;;;;;5010852;28;20194;-65
2023/03/17 09:48:22;;;;;;;5.30;2.70;;;;;;;;;;5011168;28;20199;-65
2023/03/17 09:51:05;;;;;;;4.85;3.15;;;;;;;;;;5026785;28;20643;-65
2023/03/17 09:53:55;;;;;;;6.30;3.15;;;;;;;;;;5015842;28;20826;-65
2023/03/17 09:56:22;;;;;;;5.85;2.92;;;;;;;;;;5021228;28;20282;-65
2023/03/17 09:58:55;;;;;;;7.45;3.80;;;;;;;;;;5020222;28;20213;-65
2023/03/17 10:01:21;;;;;;;8.40;3.78;;;;;;;;;;5024402;28;20619;-65
2023/03/17 10:03:49;;;;;;;6.72;3.70;;;;;;;;;;5012369;28;20273;-65
2023/03/17 10:06:28;;;;;;;5.80;3.53;;;;;;;;;;5023603;28;20255;-65
2023/03/17 10:09:03;;;;;;;10.32;4.00;;;;;;;;;;5025469;28;20616;-65
2023/03/17 10:11:49;;;;;;;13.27;4.43;;;;;;;;;;5027344;28;20281;-66
2023/03/17 10:14:39;;;;;;;7.18;3.47;;;;;;;;;;5016474;28;20182;-65
2023/03/17 10:17:17;;;;;;;7.88;3.70;;;;;;;;;;5014316;28;20191;-65
2023/03/17 10:20:04;;;;;;;6.35;2.78;;;;;;;;;;5015466;28;20194;-65
2023/03/17 10:22:45;;;;;;;6.50;3.50;;;;;;;;;;5027382;28;20194;-65
2023/03/17 10:25:21;;;;;;;6.78;3.40;;;;;;;;;;5014377;28;20212;-65
2023/03/17 10:28:04;;;;;;;7.75;4.00;;;;;;;;;;5018857;28;20238;-65
2023/03/17 10:30:34;;;;;;;7.90;3.45;;;;;;;;;;5010268;28;20187;-65
2023/03/17 10:33:02;;;;;;;5.28;3.08;;;;;;;;;;5020263;28;20193;-65
2023/03/17 10:35:28;;;;;;;7.40;3.22;;;;;;;;;;5014198;28;20194;-65
2023/03/17 10:37:54;;;;;;;6.30;3.30;;;;;;;;;;5021359;28;20677;-65
2023/03/17 10:40:24;;;;;;;5.47;3.28;;;;;;;;;;5015038;28;20320;-65
2023/03/17 10:42:59;;;;;;;10.35;3.10;;;;;;;;;;5022182;28;20328;-65
2023/03/17 10:45:32;;;;;;;4.72;3.05;;;;;;;;;;5016836;28;20245;-65
2023/03/17 10:47:59;;;;;;;8.38;3.35;;;;;;;;;;5020539;28;20259;-65
2023/03/17 10:50:33;;;;;;;9.00;3.47;;;;;;;;;;5016550;28;20193;-65
2023/03/17 10:53:03;;;;;;;5.22;3.20;;;;;;;;;;5023842;28;20191;-65
2023/03/17 10:55:50;;;;;;;6.95;3.95;;;;;;;;;;5011072;28;20186;-64
2023/03/17 10:58:25;;;;;;;9.70;3.78;;;;;;;;;;5021110;28;20191;-64
2023/03/17 11:00:56;;;;;;;5.63;3.50;;;;;;;;;;5023833;28;20218;-64
2023/03/17 11:03:27;;;;;;;5.57;3.42;;;;;;;;;;5023176;28;20744;-64
2023/03/17 11:06:01;;;;;;;8.70;3.55;;;;;;;;;;5017709;28;20226;-65
2023/03/17 11:08:34;;;;;;;5.35;3.10;;;;;;;;;;5020627;28;20272;-64
2023/03/17 11:11:05;;;;;;;7.28;3.72;;;;;;;;;;5029118;28;20201;-65
2023/03/17 11:13:30;;;;;;;7.28;3.67;;;;;;;;;;5019424;28;20195;-64
2023/03/17 11:16:11;;;;;;;8.57;3.42;;;;;;;;;;5015382;28;20614;-64
2023/03/17 11:18:38;;;;;;;11.27;3.40;;;;;;;;;;5038601;28;20393;-65
2023/03/17 11:21:12;;;;;;;8.57;3.70;;;;;;;;;;5027718;28;20206;-64
2023/03/17 11:23:56;;;;;;;9.88;3.90;;;;;;;;;;5013880;28;20190;-65
2023/03/17 11:26:30;;;;;;;6.70;3.75;;;;;;;;;;5027958;28;20181;-64
2023/03/17 11:28:58;;;;;;;8.88;3.60;;;;;;;;;;5026799;28;20262;-65
2023/03/17 11:31:36;;;;;;;8.25;3.72;;;;;;;;;;5023551;28;20439;-66
2023/03/17 11:34:08;;;;;;;5.95;3.25;;;;;;;;;;5013425;28;20293;-64
2023/03/17 11:37:18;;;;;;;7.20;3.47;;;;;;;;;;5020586;28;20224;-64
2023/03/17 11:40:01;;;;;;;8.43;3.83;;;;;;;;;;5012151;28;20304;-65
2023/03/17 11:42:41;;;;;;;7.97;3.50;;;;;;;;;;5020992;28;20240;-64
2023/03/17 11:45:16;;;;;;;12.70;3.78;;;;;;;;;;5023771;28;20190;-64
2023/03/17 11:48:10;;;;;;;6.50;3.75;;;;;;;;;;5022012;28;20194;-64
2023/03/17 11:50:55;;;;;;;7.28;3.65;;;;;;;;;;5021139;28;20190;-64
2023/03/17 11:53:44;;;;;;;6.95;4.05;;;;;;;;;;5016140;28;20181;-64
2023/03/17 11:56:23;;;;;;;6.93;3.90;;;;;;;;;;5027585;28;20240;-64
2023/03/17 11:58:55;;;;;;;6.93;3.80;;;;;;;;;;5026719;28;20186;-64
2023/03/17 12:01:26;;;;;;;7.28;3.75;;;;;;;;;;5026990;28;20210;-64
2023/03/17 12:04:09;;;;;;;6.50;3.60;;;;;;;;;;5028159;28;20198;-64
2023/03/17 12:06:45;;;;;;;6.13;3.42;;;;;;;;;;5013887;28;20191;-64
2023/03/17 12:09:36;;;;;;;9.50;4.03;;;;;;;;;;5009396;28;20221;-64
2023/03/17 12:12:02;;;;;;;6.85;3.72;;;;;;;;;;5008834;28;20194;-64
2023/03/17 12:14:33;;;;;;;6.38;4.10;;;;;;;;;;5034541;28;20436;-65
2023/03/17 12:17:08;;;;;;;5.85;3.83;;;;;;;;;;5022461;28;20191;-64
2023/03/17 12:19:58;;;;;;;9.23;4.00;;;;;;;;;;5011030;28;20193;-64
2023/03/17 12:22:31;;;;;;;9.40;3.70;;;;;;;;;;5015064;28;20252;-64
2023/03/17 12:25:17;;;;;;;9.38;3.92;;;;;;;;;;5027662;28;20598;-64
2023/03/17 12:27:51;;;;;;;7.50;3.92;;;;;;;;;;5008701;28;20301;-64
2023/03/17 12:30:27;;;;;;;5.30;3.53;;;;;;;;;;5015550;28;20182;-64
2023/03/17 12:33:10;;;;;;;7.30;3.60;;;;;;;;;;5012621;28;20688;-65
2023/03/17 12:35:37;;;;;;;7.47;3.72;;;;;;;;;;5026998;28;20309;-65
2023/03/17 12:38:27;;;;;;;8.73;3.90;;;;;;;;;;5012782;28;20198;-65
2023/03/17 12:41:30;;;;;;;5.45;3.40;;;;;;;;;;5018483;28;20308;-65
2023/03/17 12:44:29;;;;;;;5.57;3.88;;;;;;;;;;5011943;28;20325;-65
2023/03/17 12:47:31;;;;;;;4.85;3.65;;;;;;;;;;5017205;28;20202;-64
2023/03/17 12:50:29;;;;;;;6.15;3.90;;;;;;;;;;5034352;28;20186;-65
2023/03/17 12:52:59;;;;;;;9.07;4.25;;;;;;;;;;5014477;28;20182;-65
2023/03/17 12:55:29;;;;;;;7.47;3.70;;;;;;;;;;5017412;28;20205;-65
2023/03/17 12:58:14;;;;;;;7.18;3.40;;;;;;;;;;5027275;28;20259;-65
2023/03/17 13:00:49;;;;;;;7.72;4.30;;;;;;;;;;5025808;28;20308;-66
2023/03/17 13:03:24;;;;;;;8.05;4.47;;;;;;;;;;5026618;28;20551;-65
2023/03/17 13:05:54;;;;;;;7.43;3.80;;;;;;;;;;5027332;28;20318;-65
2023/03/17 13:08:27;;;;;;;7.65;4.55;;;;;;;;;;5023310;28;20710;-65
2023/03/17 13:11:15;;;;;;;7.60;4.28;;;;;;;;;;5015812;28;20191;-65
2023/03/17 13:14:14;;;;;;;9.05;3.72;;;;;;;;;;5024078;28;20755;-65
2023/03/17 13:16:41;;;;;;;11.63;4.47;;;;;;;;;;5012239;28;20332;-65
2023/03/17 13:19:17;;;;;;;7.50;4.50;;;;;;;;;;5014656;28;20183;-65
2023/03/17 13:22:03;;;;;;;9.75;4.40;;;;;;;;;;5008680;28;20401;-65
2023/03/17 13:24:47;;;;;;;10.95;4.05;;;;;;;;;;4994462;28;20592;-65
2023/03/17 13:27:31;;;;;;;8.02;4.22;;;;;;;;;;5019435;28;20236;-64
2023/03/17 13:30:25;;;;;;;7.28;4.22;;;;;;;;;;5011176;28;20312;-65
2023/03/17 13:32:55;;;;;;;6.05;3.90;;;;;;;;;;5021587;28;20199;-65
2023/03/17 13:35:38;;;;;;;7.07;4.07;;;;;;;;;;5011939;28;20186;-64
2023/03/17 13:38:25;;;;;;;7.15;5.00;;;;;;;;;;5013359;28;20187;-66
2023/03/17 13:41:45;;;;;;;7.50;4.20;;;;;;;;;;5022139;28;20300;-65
2023/03/17 13:44:41;;;;;;;8.07;4.13;;;;;;;;;;5005179;28;20199;-65
2023/03/17 13:47:27;;;;;;;8.20;4.45;;;;;;;;;;5010794;28;20646;-65
2023/03/17 13:49:56;;;;;;;8.13;4.05;;;;;;;;;;5007737;28;20194;-66
2023/03/17 13:52:38;;;;;;;8.75;4.45;;;;;;;;;;5008218;28;20195;-65
2023/03/17 13:55:23;;;;;;;6.57;3.88;;;;;;;;;;5019966;28;20474;-65
2023/03/17 13:58:16;;;;;;;7.45;4.55;;;;;;;;;;5019126;28;20225;-65
2023/03/17 14:00:44;;;;;;;6.93;3.80;;;;;;;;;;5013547;28;20215;-66
2023/03/17 14:03:18;;;;;;;8.55;4.50;;;;;;;;;;5021473;28;20217;-66
2023/03/17 14:05:49;;;;;;;8.77;4.80;;;;;;;;;;5020538;28;20189;-66
2023/03/17 14:08:21;;;;;;;7.00;4.65;;;;;;;;;;5026208;28;20193;-66
2023/03/17 14:10:54;;;;;;;6.47;4.15;;;;;;;;;;5026699;28;20212;-65
2023/03/17 14:13:24;;;;;;;6.85;4.40;;;;;;;;;;5020653;28;20686;-65
2023/03/17 14:16:02;;;;;;;8.68;4.45;;;;;;;;;;5023859;28;20684;-67
2023/03/17 14:18:50;;;;;;;8.02;4.47;;;;;;;;;;5012154;28;20190;-66
2023/03/17 14:21:24;;;;;;;8.00;4.47;;;;;;;;;;5012362;28;20654;-66
2023/03/17 14:23:54;;;;;;;9.73;4.97;;;;;;;;;;5016054;28;20185;-65
2023/03/17 14:26:22;;;;;;;7.95;4.45;;;;;;;;;;5012720;28;20182;-66
2023/03/17 14:28:47;;;;;;;7.90;4.63;;;;;;;;;;5012836;28;20234;-66
2023/03/17 14:31:22;;;;;;;8.25;5.20;;;;;;;;;;5019074;28;20188;-66
2023/03/17 14:33:50;;;;;;;9.63;5.07;;;;;;;;;;5019146;28;20559;-65
2023/03/17 14:36:17;;;;;;;8.70;4.90;;;;;;;;;;5024051;28;20649;-65
2023/03/17 14:38:54;;;;;;;6.32;4.50;;;;;;;;;;5016792;28;20203;-65
2023/03/17 14:41:21;;;;;;;8.63;4.70;;;;;;;;;;5016443;28;20714;-65
2023/03/17 14:43:48;;;;;;;10.02;4.68;;;;;;;;;;5009630;28;20244;-66
2023/03/17 14:46:20;;;;;;;11.07;5.00;;;;;;;;;;5013558;28;20273;-65
2023/03/17 14:48:48;;;;;;;8.73;4.88;;;;;;;;;;5010363;28;20277;-66
2023/03/17 14:51:38;;;;;;;7.57;5.18;;;;;;;;;;5021318;28;20276;-65
2023/03/17 14:54:13;;;;;;;8.35;4.93;;;;;;;;;;5022664;28;20212;-66
2023/03/17 14:56:51;;;;;;;8.13;5.10;;;;;;;;;;5018230;28;20221;-66
2023/03/17 14:59:22;;;;;;;9.48;4.95;;;;;;;;;;5026547;28;20272;-65
2023/03/17 15:01:53;;;;;;;7.72;4.93;;;;;;;;;;5027923;28;20301;-65